sensor_id;sensor_type;location;lat;lon;timestamp;temperature;humidity
21807;DHT22;11065;50.786;7.840;2023-10-08T00:00:45;18.90;52.70
21807;DHT22;11065;50.786;7.840;2023-10-08T00:03:16;19.00;52.80
21807;DHT22;11065;50.786;7.840;2023-10-08T00:05:46;19.00;52.80
21807;DHT22;11065;50.786;7.840;2023-10-08T00:08:16;19.00;52.70
21807;DHT22;11065;50.786;7.840;2023-10-08T00:10:44;19.00;52.60
21807;DHT22;11065;50.786;7.840;2023-10-08T00:13:13;19.00;52.50
21807;DHT22;11065;50.786;7.840;2023-10-08T00:15:43;19.00;52.60
21807;DHT22;11065;50.786;7.840;2023-10-08T00:18:20;19.00;52.60
21807;DHT22;11065;50.786;7.840;2023-10-08T00:20:50;19.00;52.60
21807;DHT22;11065;50.786;7.840;2023-10-08T00:23:25;18.90;52.50
21807;DHT22;11065;50.786;7.840;2023-10-08T00:25:53;18.90;52.50
21807;DHT22;11065;50.786;7.840;2023-10-08T00:28:22;18.90;52.60
21807;DHT22;11065;50.786;7.840;2023-10-08T00:30:51;18.90;52.50
21807;DHT22;11065;50.786;7.840;2023-10-08T00:33:21;18.80;52.50
21807;DHT22;11065;50.786;7.840;2023-10-08T00:35:50;18.80;52.50
21807;DHT22;11065;50.786;7.840;2023-10-08T00:38:18;18.80;52.60
21807;DHT22;11065;50.786;7.840;2023-10-08T00:40:47;18.80;52.60
21807;DHT22;11065;50.786;7.840;2023-10-08T00:43:31;18.80;52.70
21807;DHT22;11065;50.786;7.840;2023-10-08T00:46:01;18.80;52.90
21807;DHT22;11065;50.786;7.840;2023-10-08T00:48:44;18.70;52.80
21807;DHT22;11065;50.786;7.840;2023-10-08T00:51:14;18.70;52.70
21807;DHT22;11065;50.786;7.840;2023-10-08T00:53:54;18.70;52.80
21807;DHT22;11065;50.786;7.840;2023-10-08T00:56:27;18.70;52.90
21807;DHT22;11065;50.786;7.840;2023-10-08T00:59:11;18.60;52.80
21807;DHT22;11065;50.786;7.840;2023-10-08T01:01:42;18.60;52.70
21807;DHT22;11065;50.786;7.840;2023-10-08T01:04:18;18.60;52.80
21807;DHT22;11065;50.786;7.840;2023-10-08T01:06:53;18.60;52.80
21807;DHT22;11065;50.786;7.840;2023-10-08T01:09:25;18.50;52.80
21807;DHT22;11065;50.786;7.840;2023-10-08T01:12:09;18.50;52.90
21807;DHT22;11065;50.786;7.840;2023-10-08T01:14:39;18.40;53.30
21807;DHT22;11065;50.786;7.840;2023-10-08T01:17:10;18.40;52.90
21807;DHT22;11065;50.786;7.840;2023-10-08T01:19:42;18.30;52.90
21807;DHT22;11065;50.786;7.840;2023-10-08T01:22:14;18.20;52.90
21807;DHT22;11065;50.786;7.840;2023-10-08T01:24:45;18.20;53.00
21807;DHT22;11065;50.786;7.840;2023-10-08T01:27:15;18.10;53.00
21807;DHT22;11065;50.786;7.840;2023-10-08T01:29:48;18.10;53.10
21807;DHT22;11065;50.786;7.840;2023-10-08T01:32:18;18.00;53.20
21807;DHT22;11065;50.786;7.840;2023-10-08T01:34:47;18.00;53.20
21807;DHT22;11065;50.786;7.840;2023-10-08T01:37:17;17.90;53.30
21807;DHT22;11065;50.786;7.840;2023-10-08T01:39:46;17.90;53.40
21807;DHT22;11065;50.786;7.840;2023-10-08T01:42:17;17.80;53.40
21807;DHT22;11065;50.786;7.840;2023-10-08T01:44:46;17.80;53.40
21807;DHT22;11065;50.786;7.840;2023-10-08T01:47:15;17.80;53.50
21807;DHT22;11065;50.786;7.840;2023-10-08T01:49:43;17.70;53.50
21807;DHT22;11065;50.786;7.840;2023-10-08T01:52:13;17.70;53.60
21807;DHT22;11065;50.786;7.840;2023-10-08T01:54:47;17.70;53.60
21807;DHT22;11065;50.786;7.840;2023-10-08T01:57:15;17.60;53.70
21807;DHT22;11065;50.786;7.840;2023-10-08T01:59:43;17.60;53.80
21807;DHT22;11065;50.786;7.840;2023-10-08T02:02:12;17.60;53.90
21807;DHT22;11065;50.786;7.840;2023-10-08T02:04:42;17.50;53.90
21807;DHT22;11065;50.786;7.840;2023-10-08T02:07:11;17.50;53.80
21807;DHT22;11065;50.786;7.840;2023-10-08T02:09:39;17.50;53.90
21807;DHT22;11065;50.786;7.840;2023-10-08T02:12:10;17.40;53.90
21807;DHT22;11065;50.786;7.840;2023-10-08T02:14:41;17.30;53.90
21807;DHT22;11065;50.786;7.840;2023-10-08T02:17:09;17.30;53.90
21807;DHT22;11065;50.786;7.840;2023-10-08T02:19:40;17.30;54.00
21807;DHT22;11065;50.786;7.840;2023-10-08T02:22:08;17.30;54.10
21807;DHT22;11065;50.786;7.840;2023-10-08T02:24:36;17.20;54.10
21807;DHT22;11065;50.786;7.840;2023-10-08T02:27:05;17.20;54.20
21807;DHT22;11065;50.786;7.840;2023-10-08T02:29:35;17.20;54.20
21807;DHT22;11065;50.786;7.840;2023-10-08T02:32:03;17.10;54.20
21807;DHT22;11065;50.786;7.840;2023-10-08T02:34:32;17.10;54.20
21807;DHT22;11065;50.786;7.840;2023-10-08T02:37:00;17.10;54.30
21807;DHT22;11065;50.786;7.840;2023-10-08T02:39:30;17.00;54.30
21807;DHT22;11065;50.786;7.840;2023-10-08T02:41:58;17.00;54.40
21807;DHT22;11065;50.786;7.840;2023-10-08T02:44:27;17.00;54.40
21807;DHT22;11065;50.786;7.840;2023-10-08T02:46:56;16.90;54.40
21807;DHT22;11065;50.786;7.840;2023-10-08T02:49:24;16.90;54.50
21807;DHT22;11065;50.786;7.840;2023-10-08T02:51:56;16.90;54.60
21807;DHT22;11065;50.786;7.840;2023-10-08T02:54:25;16.90;54.70
21807;DHT22;11065;50.786;7.840;2023-10-08T02:56:59;16.90;54.80
21807;DHT22;11065;50.786;7.840;2023-10-08T02:59:31;16.80;54.80
21807;DHT22;11065;50.786;7.840;2023-10-08T03:02:10;16.80;55.00
21807;DHT22;11065;50.786;7.840;2023-10-08T03:04:42;16.80;55.00
21807;DHT22;11065;50.786;7.840;2023-10-08T03:07:13;16.80;55.00
21807;DHT22;11065;50.786;7.840;2023-10-08T03:09:50;16.80;55.10
21807;DHT22;11065;50.786;7.840;2023-10-08T03:12:30;16.80;55.20
21807;DHT22;11065;50.786;7.840;2023-10-08T03:14:59;16.80;55.30
21807;DHT22;11065;50.786;7.840;2023-10-08T03:17:41;16.80;55.40
21807;DHT22;11065;50.786;7.840;2023-10-08T03:20:17;16.80;55.50
21807;DHT22;11065;50.786;7.840;2023-10-08T03:23:05;17.00;55.60
21807;DHT22;11065;50.786;7.840;2023-10-08T03:25:39;16.80;55.60
21807;DHT22;11065;50.786;7.840;2023-10-08T03:28:09;16.90;55.70
21807;DHT22;11065;50.786;7.840;2023-10-08T03:30:39;16.90;55.70
21807;DHT22;11065;50.786;7.840;2023-10-08T03:33:18;16.90;55.70
21807;DHT22;11065;50.786;7.840;2023-10-08T03:35:51;17.00;55.90
21807;DHT22;11065;50.786;7.840;2023-10-08T03:38:22;17.00;55.80
21807;DHT22;11065;50.786;7.840;2023-10-08T03:40:55;17.00;55.80
21807;DHT22;11065;50.786;7.840;2023-10-08T03:43:35;17.10;55.80
21807;DHT22;11065;50.786;7.840;2023-10-08T03:46:13;17.10;55.60
21807;DHT22;11065;50.786;7.840;2023-10-08T03:48:44;17.00;55.50
21807;DHT22;11065;50.786;7.840;2023-10-08T03:51:12;17.00;55.50
21807;DHT22;11065;50.786;7.840;2023-10-08T03:53:41;17.00;55.60
21807;DHT22;11065;50.786;7.840;2023-10-08T03:56:25;16.90;55.50
21807;DHT22;11065;50.786;7.840;2023-10-08T03:58:56;16.90;55.70
21807;DHT22;11065;50.786;7.840;2023-10-08T04:01:27;16.90;55.70
21807;DHT22;11065;50.786;7.840;2023-10-08T04:04:00;16.90;55.80
21807;DHT22;11065;50.786;7.840;2023-10-08T04:06:28;16.90;55.80
21807;DHT22;11065;50.786;7.840;2023-10-08T04:08:58;16.90;55.70
21807;DHT22;11065;50.786;7.840;2023-10-08T04:11:39;16.90;55.70
21807;DHT22;11065;50.786;7.840;2023-10-08T04:14:20;16.90;55.70
21807;DHT22;11065;50.786;7.840;2023-10-08T04:16:48;16.80;55.60
21807;DHT22;11065;50.786;7.840;2023-10-08T04:19:20;16.80;55.70
21807;DHT22;11065;50.786;7.840;2023-10-08T04:21:53;16.80;55.90
21807;DHT22;11065;50.786;7.840;2023-10-08T04:24:22;16.80;55.80
21807;DHT22;11065;50.786;7.840;2023-10-08T04:26:56;16.70;55.90
21807;DHT22;11065;50.786;7.840;2023-10-08T04:29:26;16.70;56.00
21807;DHT22;11065;50.786;7.840;2023-10-08T04:31:59;16.70;56.10
21807;DHT22;11065;50.786;7.840;2023-10-08T04:34:36;16.60;56.10
21807;DHT22;11065;50.786;7.840;2023-10-08T04:37:04;16.70;56.30
21807;DHT22;11065;50.786;7.840;2023-10-08T04:39:39;16.60;56.20
21807;DHT22;11065;50.786;7.840;2023-10-08T04:42:14;16.60;56.30
21807;DHT22;11065;50.786;7.840;2023-10-08T04:44:52;16.60;56.30
21807;DHT22;11065;50.786;7.840;2023-10-08T04:47:21;16.60;56.40
21807;DHT22;11065;50.786;7.840;2023-10-08T04:50:01;16.60;56.50
21807;DHT22;11065;50.786;7.840;2023-10-08T04:52:31;16.60;56.60
21807;DHT22;11065;50.786;7.840;2023-10-08T04:55:01;16.60;56.60
21807;DHT22;11065;50.786;7.840;2023-10-08T04:57:39;16.60;56.60
21807;DHT22;11065;50.786;7.840;2023-10-08T05:00:10;16.60;56.80
21807;DHT22;11065;50.786;7.840;2023-10-08T05:02:42;16.60;56.60
21807;DHT22;11065;50.786;7.840;2023-10-08T05:05:18;16.60;56.60
21807;DHT22;11065;50.786;7.840;2023-10-08T05:07:50;16.60;56.70
21807;DHT22;11065;50.786;7.840;2023-10-08T05:10:35;16.60;56.60
21807;DHT22;11065;50.786;7.840;2023-10-08T05:13:28;16.60;56.60
21807;DHT22;11065;50.786;7.840;2023-10-08T05:16:01;16.60;56.60
21807;DHT22;11065;50.786;7.840;2023-10-08T05:18:56;16.60;56.70
21807;DHT22;11065;50.786;7.840;2023-10-08T05:21:53;16.60;56.60
21807;DHT22;11065;50.786;7.840;2023-10-08T05:24:45;16.50;56.70
21807;DHT22;11065;50.786;7.840;2023-10-08T05:27:35;16.50;56.80
21807;DHT22;11065;50.786;7.840;2023-10-08T05:30:24;16.60;56.90
21807;DHT22;11065;50.786;7.840;2023-10-08T05:33:05;16.50;56.90
21807;DHT22;11065;50.786;7.840;2023-10-08T05:35:40;16.50;57.00
21807;DHT22;11065;50.786;7.840;2023-10-08T05:38:19;16.60;57.10
21807;DHT22;11065;50.786;7.840;2023-10-08T05:41:05;16.60;57.30
21807;DHT22;11065;50.786;7.840;2023-10-08T05:43:44;16.60;57.20
21807;DHT22;11065;50.786;7.840;2023-10-08T05:46:41;16.60;57.30
21807;DHT22;11065;50.786;7.840;2023-10-08T05:49:16;16.70;57.30
21807;DHT22;11065;50.786;7.840;2023-10-08T05:52:02;16.70;57.40
21807;DHT22;11065;50.786;7.840;2023-10-08T05:54:53;16.70;57.20
21807;DHT22;11065;50.786;7.840;2023-10-08T05:57:42;16.70;57.20
21807;DHT22;11065;50.786;7.840;2023-10-08T06:00:19;16.70;57.10
21807;DHT22;11065;50.786;7.840;2023-10-08T06:03:05;16.70;57.20
21807;DHT22;11065;50.786;7.840;2023-10-08T06:05:59;16.70;57.30
21807;DHT22;11065;50.786;7.840;2023-10-08T06:08:49;16.70;57.20
21807;DHT22;11065;50.786;7.840;2023-10-08T06:11:20;16.70;57.20
21807;DHT22;11065;50.786;7.840;2023-10-08T06:14:03;16.70;57.40
21807;DHT22;11065;50.786;7.840;2023-10-08T06:16:41;16.70;57.60
21807;DHT22;11065;50.786;7.840;2023-10-08T06:19:09;16.70;57.70
21807;DHT22;11065;50.786;7.840;2023-10-08T06:21:39;16.70;57.60
21807;DHT22;11065;50.786;7.840;2023-10-08T06:24:07;16.70;57.70
21807;DHT22;11065;50.786;7.840;2023-10-08T06:26:38;16.70;57.70
21807;DHT22;11065;50.786;7.840;2023-10-08T06:29:10;16.70;57.80
21807;DHT22;11065;50.786;7.840;2023-10-08T06:31:56;16.80;57.90
21807;DHT22;11065;50.786;7.840;2023-10-08T06:34:24;16.80;57.90
21807;DHT22;11065;50.786;7.840;2023-10-08T06:36:56;16.80;58.00
21807;DHT22;11065;50.786;7.840;2023-10-08T06:39:51;16.90;58.10
21807;DHT22;11065;50.786;7.840;2023-10-08T06:42:21;17.00;58.10
21807;DHT22;11065;50.786;7.840;2023-10-08T06:44:54;17.00;58.30
21807;DHT22;11065;50.786;7.840;2023-10-08T06:47:24;17.00;58.20
21807;DHT22;11065;50.786;7.840;2023-10-08T06:49:53;17.10;58.20
21807;DHT22;11065;50.786;7.840;2023-10-08T06:52:21;17.10;58.10
21807;DHT22;11065;50.786;7.840;2023-10-08T06:54:50;17.20;58.20
21807;DHT22;11065;50.786;7.840;2023-10-08T06:57:21;17.20;58.20
21807;DHT22;11065;50.786;7.840;2023-10-08T06:59:54;17.30;58.20
21807;DHT22;11065;50.786;7.840;2023-10-08T07:02:21;17.30;58.10
21807;DHT22;11065;50.786;7.840;2023-10-08T07:04:50;17.40;58.10
21807;DHT22;11065;50.786;7.840;2023-10-08T07:07:18;17.40;58.10
21807;DHT22;11065;50.786;7.840;2023-10-08T07:09:46;17.40;58.10
21807;DHT22;11065;50.786;7.840;2023-10-08T07:12:17;17.50;58.30
21807;DHT22;11065;50.786;7.840;2023-10-08T07:14:47;17.50;58.20
21807;DHT22;11065;50.786;7.840;2023-10-08T07:17:15;17.60;58.30
21807;DHT22;11065;50.786;7.840;2023-10-08T07:19:47;17.60;58.20
21807;DHT22;11065;50.786;7.840;2023-10-08T07:22:17;17.70;58.20
21807;DHT22;11065;50.786;7.840;2023-10-08T07:24:49;17.70;58.10
21807;DHT22;11065;50.786;7.840;2023-10-08T07:27:18;17.80;58.20
21807;DHT22;11065;50.786;7.840;2023-10-08T07:29:50;17.90;58.20
21807;DHT22;11065;50.786;7.840;2023-10-08T07:32:22;17.90;58.20
21807;DHT22;11065;50.786;7.840;2023-10-08T07:34:53;18.00;58.10
21807;DHT22;11065;50.786;7.840;2023-10-08T07:37:41;18.00;58.00
21807;DHT22;11065;50.786;7.840;2023-10-08T07:40:10;18.10;58.00
21807;DHT22;11065;50.786;7.840;2023-10-08T07:42:39;18.10;57.90
21807;DHT22;11065;50.786;7.840;2023-10-08T07:45:09;18.20;57.90
21807;DHT22;11065;50.786;7.840;2023-10-08T07:47:43;18.20;57.80
21807;DHT22;11065;50.786;7.840;2023-10-08T07:50:12;18.30;57.40
21807;DHT22;11065;50.786;7.840;2023-10-08T07:52:41;18.40;57.00
21807;DHT22;11065;50.786;7.840;2023-10-08T07:55:11;18.40;57.20
21807;DHT22;11065;50.786;7.840;2023-10-08T07:57:44;18.40;56.90
21807;DHT22;11065;50.786;7.840;2023-10-08T08:00:14;18.50;57.30
21807;DHT22;11065;50.786;7.840;2023-10-08T08:02:50;18.50;57.70
21807;DHT22;11065;50.786;7.840;2023-10-08T08:05:19;18.60;57.80
21807;DHT22;11065;50.786;7.840;2023-10-08T08:07:48;18.80;57.60
21807;DHT22;11065;50.786;7.840;2023-10-08T08:10:17;18.90;57.90
21807;DHT22;11065;50.786;7.840;2023-10-08T08:12:45;18.90;57.30
21807;DHT22;11065;50.786;7.840;2023-10-08T08:15:19;18.90;57.20
21807;DHT22;11065;50.786;7.840;2023-10-08T08:17:48;19.00;57.20
21807;DHT22;11065;50.786;7.840;2023-10-08T08:20:16;19.00;57.20
21807;DHT22;11065;50.786;7.840;2023-10-08T08:22:49;19.10;57.20
21807;DHT22;11065;50.786;7.840;2023-10-08T08:25:20;19.10;57.20
21807;DHT22;11065;50.786;7.840;2023-10-08T08:28:00;19.10;57.00
21807;DHT22;11065;50.786;7.840;2023-10-08T08:30:34;19.20;57.00
21807;DHT22;11065;50.786;7.840;2023-10-08T08:33:04;19.20;56.90
21807;DHT22;11065;50.786;7.840;2023-10-08T08:35:37;19.20;56.70
21807;DHT22;11065;50.786;7.840;2023-10-08T08:38:05;19.30;56.70
21807;DHT22;11065;50.786;7.840;2023-10-08T08:40:35;19.30;56.80
21807;DHT22;11065;50.786;7.840;2023-10-08T08:43:05;19.40;57.00
21807;DHT22;11065;50.786;7.840;2023-10-08T08:45:35;19.50;57.00
21807;DHT22;11065;50.786;7.840;2023-10-08T08:48:07;19.60;56.80
21807;DHT22;11065;50.786;7.840;2023-10-08T08:50:37;19.70;56.40
21807;DHT22;11065;50.786;7.840;2023-10-08T08:53:06;19.80;56.10
21807;DHT22;11065;50.786;7.840;2023-10-08T08:55:36;19.90;55.60
21807;DHT22;11065;50.786;7.840;2023-10-08T08:58:04;19.90;55.30
21807;DHT22;11065;50.786;7.840;2023-10-08T09:00:39;19.90;55.40
21807;DHT22;11065;50.786;7.840;2023-10-08T09:03:08;19.90;55.50
21807;DHT22;11065;50.786;7.840;2023-10-08T09:05:40;20.00;55.40
21807;DHT22;11065;50.786;7.840;2023-10-08T09:08:09;20.10;55.20
21807;DHT22;11065;50.786;7.840;2023-10-08T09:10:37;20.20;55.30
21807;DHT22;11065;50.786;7.840;2023-10-08T09:13:19;20.20;55.30
21807;DHT22;11065;50.786;7.840;2023-10-08T09:15:50;20.40;55.30
21807;DHT22;11065;50.786;7.840;2023-10-08T09:18:23;20.40;55.30
21807;DHT22;11065;50.786;7.840;2023-10-08T09:20:54;20.60;55.20
21807;DHT22;11065;50.786;7.840;2023-10-08T09:23:24;20.80;55.20
21807;DHT22;11065;50.786;7.840;2023-10-08T09:25:52;20.90;54.90
21807;DHT22;11065;50.786;7.840;2023-10-08T09:28:31;21.00;55.00
21807;DHT22;11065;50.786;7.840;2023-10-08T09:31:01;21.20;54.60
21807;DHT22;11065;50.786;7.840;2023-10-08T09:33:29;21.40;54.60
21807;DHT22;11065;50.786;7.840;2023-10-08T09:35:57;21.50;54.40
21807;DHT22;11065;50.786;7.840;2023-10-08T09:38:29;21.60;53.90
21807;DHT22;11065;50.786;7.840;2023-10-08T09:40:58;21.60;53.60
21807;DHT22;11065;50.786;7.840;2023-10-08T09:43:29;21.70;53.20
21807;DHT22;11065;50.786;7.840;2023-10-08T09:46:07;21.70;53.30
21807;DHT22;11065;50.786;7.840;2023-10-08T09:48:37;21.70;53.10
21807;DHT22;11065;50.786;7.840;2023-10-08T09:51:06;21.70;53.40
21807;DHT22;11065;50.786;7.840;2023-10-08T09:53:51;21.80;53.80
21807;DHT22;11065;50.786;7.840;2023-10-08T09:56:20;21.90;53.80
21807;DHT22;11065;50.786;7.840;2023-10-08T09:58:49;22.00;53.80
21807;DHT22;11065;50.786;7.840;2023-10-08T10:01:19;22.10;53.60
21807;DHT22;11065;50.786;7.840;2023-10-08T10:03:50;22.20;53.50
21807;DHT22;11065;50.786;7.840;2023-10-08T10:06:19;22.40;53.60
21807;DHT22;11065;50.786;7.840;2023-10-08T10:08:48;22.50;53.30
21807;DHT22;11065;50.786;7.840;2023-10-08T10:11:16;22.60;53.10
21807;DHT22;11065;50.786;7.840;2023-10-08T10:13:45;22.70;52.90
21807;DHT22;11065;50.786;7.840;2023-10-08T10:16:20;22.70;52.50
21807;DHT22;11065;50.786;7.840;2023-10-08T10:18:49;22.80;52.30
21807;DHT22;11065;50.786;7.840;2023-10-08T10:21:29;22.80;52.30
21807;DHT22;11065;50.786;7.840;2023-10-08T10:23:57;22.80;51.80
21807;DHT22;11065;50.786;7.840;2023-10-08T10:26:27;22.90;52.20
21807;DHT22;11065;50.786;7.840;2023-10-08T10:29:19;22.90;52.00
21807;DHT22;11065;50.786;7.840;2023-10-08T10:31:51;22.90;51.40
21807;DHT22;11065;50.786;7.840;2023-10-08T10:34:22;22.90;51.80
21807;DHT22;11065;50.786;7.840;2023-10-08T10:36:54;23.00;51.60
21807;DHT22;11065;50.786;7.840;2023-10-08T10:39:29;22.90;51.70
21807;DHT22;11065;50.786;7.840;2023-10-08T10:42:01;23.00;51.80
21807;DHT22;11065;50.786;7.840;2023-10-08T10:44:34;23.00;51.30
21807;DHT22;11065;50.786;7.840;2023-10-08T10:47:04;23.00;51.40
21807;DHT22;11065;50.786;7.840;2023-10-08T10:49:54;23.00;51.50
21807;DHT22;11065;50.786;7.840;2023-10-08T10:52:43;23.00;51.50
21807;DHT22;11065;50.786;7.840;2023-10-08T10:55:19;23.00;51.70
21807;DHT22;11065;50.786;7.840;2023-10-08T10:57:58;23.10;51.60
21807;DHT22;11065;50.786;7.840;2023-10-08T11:00:42;23.10;51.50
21807;DHT22;11065;50.786;7.840;2023-10-08T11:03:25;23.20;51.80
21807;DHT22;11065;50.786;7.840;2023-10-08T11:05:57;23.30;52.20
21807;DHT22;11065;50.786;7.840;2023-10-08T11:08:33;23.50;52.30
21807;DHT22;11065;50.786;7.840;2023-10-08T11:11:02;23.80;52.50
21807;DHT22;11065;50.786;7.840;2023-10-08T11:13:36;24.00;52.20
21807;DHT22;11065;50.786;7.840;2023-10-08T11:16:08;24.20;51.90
21807;DHT22;11065;50.786;7.840;2023-10-08T11:18:45;24.30;51.50
21807;DHT22;11065;50.786;7.840;2023-10-08T11:21:17;24.40;51.20
21807;DHT22;11065;50.786;7.840;2023-10-08T11:23:51;24.50;51.40
21807;DHT22;11065;50.786;7.840;2023-10-08T11:26:26;24.60;51.10
21807;DHT22;11065;50.786;7.840;2023-10-08T11:29:02;24.70;50.80
21807;DHT22;11065;50.786;7.840;2023-10-08T11:31:32;24.70;50.50
21807;DHT22;11065;50.786;7.840;2023-10-08T11:34:04;24.70;50.30
21807;DHT22;11065;50.786;7.840;2023-10-08T11:36:37;24.70;50.00
21807;DHT22;11065;50.786;7.840;2023-10-08T11:39:16;24.60;50.00
21807;DHT22;11065;50.786;7.840;2023-10-08T11:41:58;24.50;49.60
21807;DHT22;11065;50.786;7.840;2023-10-08T11:44:31;24.40;49.50
21807;DHT22;11065;50.786;7.840;2023-10-08T11:47:03;24.40;49.90
21807;DHT22;11065;50.786;7.840;2023-10-08T11:49:42;24.40;50.00
21807;DHT22;11065;50.786;7.840;2023-10-08T11:52:17;24.30;49.70
21807;DHT22;11065;50.786;7.840;2023-10-08T11:54:48;24.20;49.90
21807;DHT22;11065;50.786;7.840;2023-10-08T11:57:19;24.20;50.10
21807;DHT22;11065;50.786;7.840;2023-10-08T11:59:49;24.20;50.00
21807;DHT22;11065;50.786;7.840;2023-10-08T12:02:21;24.10;50.20
21807;DHT22;11065;50.786;7.840;2023-10-08T12:04:51;24.20;50.40
21807;DHT22;11065;50.786;7.840;2023-10-08T12:07:19;24.20;50.30
21807;DHT22;11065;50.786;7.840;2023-10-08T12:09:50;24.20;50.20
21807;DHT22;11065;50.786;7.840;2023-10-08T12:12:20;24.10;50.00
21807;DHT22;11065;50.786;7.840;2023-10-08T12:14:50;24.20;50.60
21807;DHT22;11065;50.786;7.840;2023-10-08T12:17:21;24.10;50.10
21807;DHT22;11065;50.786;7.840;2023-10-08T12:20:00;24.00;50.20
21807;DHT22;11065;50.786;7.840;2023-10-08T12:22:38;24.00;50.40
21807;DHT22;11065;50.786;7.840;2023-10-08T12:25:07;24.10;50.50
21807;DHT22;11065;50.786;7.840;2023-10-08T12:27:35;24.10;50.40
21807;DHT22;11065;50.786;7.840;2023-10-08T12:30:04;24.10;50.60
21807;DHT22;11065;50.786;7.840;2023-10-08T12:32:37;24.20;50.90
21807;DHT22;11065;50.786;7.840;2023-10-08T12:35:10;24.40;51.00
21807;DHT22;11065;50.786;7.840;2023-10-08T12:37:39;24.50;50.90
21807;DHT22;11065;50.786;7.840;2023-10-08T12:40:08;24.80;51.00
21807;DHT22;11065;50.786;7.840;2023-10-08T12:42:50;25.10;51.70
21807;DHT22;11065;50.786;7.840;2023-10-08T12:45:18;25.50;52.20
21807;DHT22;11065;50.786;7.840;2023-10-08T12:47:49;26.00;52.30
21807;DHT22;11065;50.786;7.840;2023-10-08T12:50:20;26.40;51.90
21807;DHT22;11065;50.786;7.840;2023-10-08T12:52:56;26.90;51.40
21807;DHT22;11065;50.786;7.840;2023-10-08T12:55:27;27.30;50.80
21807;DHT22;11065;50.786;7.840;2023-10-08T12:57:57;27.60;49.90
21807;DHT22;11065;50.786;7.840;2023-10-08T13:00:32;27.80;49.20
21807;DHT22;11065;50.786;7.840;2023-10-08T13:03:00;27.90;47.90
21807;DHT22;11065;50.786;7.840;2023-10-08T13:05:33;27.90;47.70
21807;DHT22;11065;50.786;7.840;2023-10-08T13:08:01;27.80;47.30
21807;DHT22;11065;50.786;7.840;2023-10-08T13:10:36;27.70;47.20
21807;DHT22;11065;50.786;7.840;2023-10-08T13:13:08;27.60;47.50
21807;DHT22;11065;50.786;7.840;2023-10-08T13:15:37;27.70;47.70
21807;DHT22;11065;50.786;7.840;2023-10-08T13:18:06;27.60;47.50
21807;DHT22;11065;50.786;7.840;2023-10-08T13:20:37;27.60;47.10
21807;DHT22;11065;50.786;7.840;2023-10-08T13:23:07;27.60;46.80
21807;DHT22;11065;50.786;7.840;2023-10-08T13:25:36;27.40;46.70
21807;DHT22;11065;50.786;7.840;2023-10-08T13:28:06;27.20;46.50
21807;DHT22;11065;50.786;7.840;2023-10-08T13:30:36;27.00;46.50
21807;DHT22;11065;50.786;7.840;2023-10-08T13:33:05;26.80;46.50
21807;DHT22;11065;50.786;7.840;2023-10-08T13:35:37;26.70;46.00
21807;DHT22;11065;50.786;7.840;2023-10-08T13:38:05;26.50;46.70
21807;DHT22;11065;50.786;7.840;2023-10-08T13:40:36;26.30;46.30
21807;DHT22;11065;50.786;7.840;2023-10-08T13:43:10;26.10;46.50
21807;DHT22;11065;50.786;7.840;2023-10-08T13:45:38;26.00;46.70
21807;DHT22;11065;50.786;7.840;2023-10-08T13:48:06;25.70;46.80
21807;DHT22;11065;50.786;7.840;2023-10-08T13:50:41;25.60;46.90
21807;DHT22;11065;50.786;7.840;2023-10-08T13:53:10;25.40;47.00
21807;DHT22;11065;50.786;7.840;2023-10-08T13:55:40;25.30;47.10
21807;DHT22;11065;50.786;7.840;2023-10-08T13:58:12;25.30;47.30
21807;DHT22;11065;50.786;7.840;2023-10-08T14:00:39;25.10;47.20
21807;DHT22;11065;50.786;7.840;2023-10-08T14:03:07;25.00;47.30
21807;DHT22;11065;50.786;7.840;2023-10-08T14:05:36;25.00;47.50
21807;DHT22;11065;50.786;7.840;2023-10-08T14:08:06;24.90;47.70
21807;DHT22;11065;50.786;7.840;2023-10-08T14:10:41;24.80;47.60
21807;DHT22;11065;50.786;7.840;2023-10-08T14:13:10;24.80;47.70
21807;DHT22;11065;50.786;7.840;2023-10-08T14:15:37;24.70;47.80
21807;DHT22;11065;50.786;7.840;2023-10-08T14:18:11;24.70;48.00
21807;DHT22;11065;50.786;7.840;2023-10-08T14:20:44;24.60;48.60
21807;DHT22;11065;50.786;7.840;2023-10-08T14:23:18;24.60;48.20
21807;DHT22;11065;50.786;7.840;2023-10-08T14:25:49;24.60;48.20
21807;DHT22;11065;50.786;7.840;2023-10-08T14:28:18;24.60;48.20
21807;DHT22;11065;50.786;7.840;2023-10-08T14:30:49;24.50;48.10
21807;DHT22;11065;50.786;7.840;2023-10-08T14:33:22;24.50;48.30
21807;DHT22;11065;50.786;7.840;2023-10-08T14:35:56;24.50;48.40
21807;DHT22;11065;50.786;7.840;2023-10-08T14:38:43;24.50;48.50
21807;DHT22;11065;50.786;7.840;2023-10-08T14:41:29;24.50;48.60
21807;DHT22;11065;50.786;7.840;2023-10-08T14:44:14;24.50;48.60
21807;DHT22;11065;50.786;7.840;2023-10-08T14:46:42;24.50;48.50
21807;DHT22;11065;50.786;7.840;2023-10-08T14:49:11;24.50;48.50
21807;DHT22;11065;50.786;7.840;2023-10-08T14:51:39;24.60;48.60
21807;DHT22;11065;50.786;7.840;2023-10-08T14:54:09;24.50;48.60
21807;DHT22;11065;50.786;7.840;2023-10-08T14:56:37;24.50;48.60
21807;DHT22;11065;50.786;7.840;2023-10-08T14:59:05;24.50;48.60
21807;DHT22;11065;50.786;7.840;2023-10-08T15:01:33;24.50;48.70
21807;DHT22;11065;50.786;7.840;2023-10-08T15:04:02;24.50;48.80
21807;DHT22;11065;50.786;7.840;2023-10-08T15:06:31;24.50;48.90
21807;DHT22;11065;50.786;7.840;2023-10-08T15:08:59;24.50;49.00
21807;DHT22;11065;50.786;7.840;2023-10-08T15:11:29;24.60;49.10
21807;DHT22;11065;50.786;7.840;2023-10-08T15:13:58;24.60;49.10
21807;DHT22;11065;50.786;7.840;2023-10-08T15:16:26;24.60;49.10
21807;DHT22;11065;50.786;7.840;2023-10-08T15:18:54;24.70;49.10
21807;DHT22;11065;50.786;7.840;2023-10-08T15:21:23;24.70;49.00
21807;DHT22;11065;50.786;7.840;2023-10-08T15:23:52;24.70;49.00
21807;DHT22;11065;50.786;7.840;2023-10-08T15:26:20;24.70;49.10
21807;DHT22;11065;50.786;7.840;2023-10-08T15:28:49;24.70;49.10
21807;DHT22;11065;50.786;7.840;2023-10-08T15:31:17;24.70;49.20
21807;DHT22;11065;50.786;7.840;2023-10-08T15:33:46;24.70;49.30
21807;DHT22;11065;50.786;7.840;2023-10-08T15:36:14;24.70;49.40
21807;DHT22;11065;50.786;7.840;2023-10-08T15:38:42;24.70;49.30
21807;DHT22;11065;50.786;7.840;2023-10-08T15:41:10;24.60;49.10
21807;DHT22;11065;50.786;7.840;2023-10-08T15:43:40;24.60;49.10
21807;DHT22;11065;50.786;7.840;2023-10-08T15:46:12;24.50;49.10
21807;DHT22;11065;50.786;7.840;2023-10-08T15:48:40;24.40;49.10
21807;DHT22;11065;50.786;7.840;2023-10-08T15:51:08;24.30;49.20
21807;DHT22;11065;50.786;7.840;2023-10-08T15:53:36;24.20;49.40
21807;DHT22;11065;50.786;7.840;2023-10-08T15:56:04;24.10;49.50
21807;DHT22;11065;50.786;7.840;2023-10-08T15:58:32;24.00;49.70
21807;DHT22;11065;50.786;7.840;2023-10-08T16:01:00;23.90;49.80
21807;DHT22;11065;50.786;7.840;2023-10-08T16:03:30;23.80;50.00